Johnny James — WYT8450 — position and weather

sailwx.info

Track history (hours):
 
Tides and Currents Weather Stations Pressure Air Temp Water Temp Dewpoint Dewpoint Depression Visibility Wind Speed Wind Dir Waves Ship Positions

Johnny James

Owner: CALLAIS & SONS INC, CUT OFF, LA. More information available from US FCC via Universal Licensing System and Coast Guard Vessel Documentation Center.

Last reported at 2017-Dec-03 02:41 UTC. Time now 2017-Dec-13 11:25 UTC.
Position N 29°51' W 091°55'.
Warning: this ship's position is 10 days out of date.

Length 112 m; draft 3 m.

Type: . MMSI: 367005220.

Date/timePositionNaut miles runAvg speedWind from/ knotsBaromVisibWave heightAir tempDewpointWater temp
2017-Dec-03 02:41N 29°51' W 091°55'2 5.7
2017-Dec-03 02:16N 29°50' W 091°57'2 5.9
2017-Dec-03 02:00N 29°50' W 091°59'2 4.8
2017-Dec-03 01:30N 29°49' W 092°02'3 5.8
2017-Dec-03 01:00N 29°48' W 092°05'3 6.1
2017-Dec-03 00:30N 29°47' W 092°08'2 4.8
2017-Dec-03 00:00N 29°47' W 092°11'2 3.3
2017-Dec-02 23:30N 29°47' W 092°13'1 2.8
2017-Dec-02 23:00N 29°48' W 092°14'2 4.3
2017-Dec-02 22:30N 29°49' W 092°16'2 4.3
2017-Dec-02 22:00N 29°50' W 092°18'3 5.7
2017-Dec-02 21:28N 29°51' W 092°22'33 5.2
2017-Dec-02 15:14N 29°56' W 092°59'5 4.3
2017-Dec-02 14:09N 29°56' W 093°04'0 0.0
2017-Dec-02 14:00N 29°56' W 093°04'3 5.0
2017-Dec-02 13:30N 29°56' W 093°07'2 4.7
2017-Dec-02 13:00N 29°56' W 093°10'3 5.3
2017-Dec-02 12:30N 29°58' W 093°12'2 4.8
2017-Dec-02 12:00N 29°60' W 093°13'2 3.5
2017-Dec-02 11:30N 30°02' W 093°14'2 3.7
2017-Dec-02 11:00N 30°03' W 093°16'2 3.4
2017-Dec-02 10:30N 30°04' W 093°16'1 2.8
2017-Dec-02 10:00N 30°05' W 093°18'1 1.9
2017-Dec-02 09:30N 30°06' W 093°18'0 0.2
2017-Dec-02 09:00N 30°06' W 093°18'0 0.0
2017-Dec-02 08:30N 30°06' W 093°18'0 0.0
2017-Dec-02 08:00N 30°06' W 093°18'0 0.0
2017-Dec-02 07:30N 30°06' W 093°18'0 0.2
2017-Dec-02 07:00N 30°06' W 093°18'1 2.8
2017-Dec-02 06:30N 30°05' W 093°20'2 4.9
2017-Dec-02 06:00N 30°04' W 093°22'1 2.5
2017-Dec-02 05:30N 30°04' W 093°23'1 1.3
2017-Dec-02 05:00N 30°04' W 093°24'3 5.9
2017-Dec-02 04:30N 30°04' W 093°27'3 5.9
2017-Dec-02 04:00N 30°04' W 093°31'3 6.0
2017-Dec-02 03:30N 30°04' W 093°34'3 6.2
2017-Dec-02 03:00N 30°04' W 093°38'3 6.6
2017-Dec-02 02:30N 30°04' W 093°42'12 0.3
2017-Nov-30 11:14N 29°60' W 093°55'0 0.0
2017-Nov-30 11:00N 29°60' W 093°55'0 0.0
2017-Nov-30 10:20N 29°60' W 093°55'0 0.0
2017-Nov-30 10:00N 29°60' W 093°55'0 0.0
2017-Nov-30 09:31N 29°60' W 093°55'0 0.0
2017-Nov-30 09:01N 29°60' W 093°55'3 5.4
2017-Nov-30 08:29N 29°59' W 093°52'1 1.3
2017-Nov-30 08:00N 29°58' W 093°52'3 0.1
2017-Nov-28 11:48N 29°60' W 093°55'0 0.0
2017-Nov-28 11:30N 29°60' W 093°55'0 0.0
2017-Nov-28 10:57N 29°60' W 093°55'0 0.0
2017-Nov-28 10:27N 29°60' W 093°55'  
2017-Nov-25 14:18N 30°03' W 093°44'2 5.0
2017-Nov-25 13:58N 30°03' W 093°42'2 4.5
2017-Nov-25 13:30N 30°04' W 093°40'2 4.4
2017-Nov-25 13:00N 30°04' W 093°37'2 4.5
2017-Nov-25 12:30N 30°04' W 093°35'2 4.5
2017-Nov-25 12:00N 30°04' W 093°32'2 4.6
2017-Nov-25 11:30N 30°04' W 093°30'2 4.8
2017-Nov-25 11:00N 30°04' W 093°27'2 4.6
2017-Nov-25 10:30N 30°04' W 093°24'2 4.6
2017-Nov-25 10:00N 30°04' W 093°21'2 3.4
2017-Nov-25 09:30N 30°05' W 093°20'1 2.4
2017-Nov-25 09:00N 30°06' W 093°19'1 2.2
2017-Nov-25 08:30N 30°06' W 093°18'1 1.2
2017-Nov-25 08:00N 30°05' W 093°17'1 2.8
2017-Nov-25 07:30N 30°04' W 093°16'2 4.1
2017-Nov-25 07:00N 30°02' W 093°15'2 3.9
2017-Nov-25 06:30N 30°01' W 093°14'2 4.0
2017-Nov-25 06:00N 29°59' W 093°13'2 4.4
2017-Nov-25 05:30N 29°58' W 093°11'2 4.1
2017-Nov-25 05:00N 29°56' W 093°09'2 4.2
2017-Nov-25 04:30N 29°56' W 093°07'2 4.4
2017-Nov-25 04:00N 29°56' W 093°04'37 4.0
2017-Nov-24 18:42N 29°51' W 092°22'1 4.1
2017-Nov-24 18:27N 29°51' W 092°20'1 1.2
2017-Nov-24 18:00N 29°51' W 092°20'1 2.6
2017-Nov-24 17:29N 29°50' W 092°18'2 3.6
2017-Nov-24 17:00N 29°49' W 092°17'2 3.2
2017-Nov-24 16:30N 29°48' W 092°15'2 3.5
2017-Nov-24 16:00N 29°48' W 092°13'1 2.2
2017-Nov-24 15:30N 29°47' W 092°12'1 1.8
2017-Nov-24 15:00N 29°47' W 092°11'0 0.6
2017-Nov-24 14:30N 29°47' W 092°11'0 0.0
2017-Nov-24 14:00N 29°47' W 092°11'0 0.0
2017-Nov-24 13:30N 29°47' W 092°11'0 0.0
2017-Nov-24 13:00N 29°47' W 092°11'0 0.2
2017-Nov-24 12:30N 29°47' W 092°11'0 0.5
2017-Nov-24 12:00N 29°47' W 092°11'0 0.1
2017-Nov-24 11:30N 29°47' W 092°11'0 0.1
2017-Nov-24 11:00N 29°47' W 092°11'2 3.3
2017-Nov-24 10:30N 29°47' W 092°09'2 4.6
2017-Nov-24 10:00N 29°48' W 092°06'2 4.5
2017-Nov-24 09:30N 29°49' W 092°04'2 4.5
2017-Nov-24 09:00N 29°49' W 092°01'3 4.7
2017-Nov-24 08:25N 29°50' W 091°58'  
Track history (hours):
 
Tides and Currents Weather Stations Pressure Air Temp Water Temp Dewpoint Dewpoint Depression Visibility Wind Speed Wind Dir Waves Ship Positions

Johnny James

Owner: CALLAIS & SONS INC, CUT OFF, LA. More information available from US FCC via Universal Licensing System and Coast Guard Vessel Documentation Center.

Last reported at 2017-Dec-03 02:41 UTC. Time now 2017-Dec-13 11:25 UTC.
Position N 29°51' W 091°55'.
Warning: this ship's position is 10 days out of date.

Length 112 m; draft 3 m.

Type: . MMSI: 367005220.

Date/timePositionNaut miles runAvg speedWind from/ knotsBaromVisibWave heightAir tempDewpointWater temp
2017-Dec-03 02:41N 29°51' W 091°55'2 5.7
2017-Dec-03 02:16N 29°50' W 091°57'2 5.9
2017-Dec-03 02:00N 29°50' W 091°59'2 4.8
2017-Dec-03 01:30N 29°49' W 092°02'3 5.8
2017-Dec-03 01:00N 29°48' W 092°05'3 6.1
2017-Dec-03 00:30N 29°47' W 092°08'2 4.8
2017-Dec-03 00:00N 29°47' W 092°11'2 3.3
2017-Dec-02 23:30N 29°47' W 092°13'1 2.8
2017-Dec-02 23:00N 29°48' W 092°14'2 4.3
2017-Dec-02 22:30N 29°49' W 092°16'2 4.3
2017-Dec-02 22:00N 29°50' W 092°18'3 5.7
2017-Dec-02 21:28N 29°51' W 092°22'33 5.2
2017-Dec-02 15:14N 29°56' W 092°59'5 4.3
2017-Dec-02 14:09N 29°56' W 093°04'0 0.0
2017-Dec-02 14:00N 29°56' W 093°04'3 5.0
2017-Dec-02 13:30N 29°56' W 093°07'2 4.7
2017-Dec-02 13:00N 29°56' W 093°10'3 5.3
2017-Dec-02 12:30N 29°58' W 093°12'2 4.8
2017-Dec-02 12:00N 29°60' W 093°13'2 3.5
2017-Dec-02 11:30N 30°02' W 093°14'2 3.7
2017-Dec-02 11:00N 30°03' W 093°16'2 3.4
2017-Dec-02 10:30N 30°04' W 093°16'1 2.8
2017-Dec-02 10:00N 30°05' W 093°18'1 1.9
2017-Dec-02 09:30N 30°06' W 093°18'0 0.2
2017-Dec-02 09:00N 30°06' W 093°18'0 0.0
2017-Dec-02 08:30N 30°06' W 093°18'0 0.0
2017-Dec-02 08:00N 30°06' W 093°18'0 0.0
2017-Dec-02 07:30N 30°06' W 093°18'0 0.2
2017-Dec-02 07:00N 30°06' W 093°18'1 2.8
2017-Dec-02 06:30N 30°05' W 093°20'2 4.9
2017-Dec-02 06:00N 30°04' W 093°22'1 2.5
2017-Dec-02 05:30N 30°04' W 093°23'1 1.3
2017-Dec-02 05:00N 30°04' W 093°24'3 5.9
2017-Dec-02 04:30N 30°04' W 093°27'3 5.9
2017-Dec-02 04:00N 30°04' W 093°31'3 6.0
2017-Dec-02 03:30N 30°04' W 093°34'3 6.2
2017-Dec-02 03:00N 30°04' W 093°38'3 6.6
2017-Dec-02 02:30N 30°04' W 093°42'12 0.3
2017-Nov-30 11:14N 29°60' W 093°55'0 0.0
2017-Nov-30 11:00N 29°60' W 093°55'0 0.0
2017-Nov-30 10:20N 29°60' W 093°55'0 0.0
2017-Nov-30 10:00N 29°60' W 093°55'0 0.0
2017-Nov-30 09:31N 29°60' W 093°55'0 0.0
2017-Nov-30 09:01N 29°60' W 093°55'3 5.4
2017-Nov-30 08:29N 29°59' W 093°52'1 1.3
2017-Nov-30 08:00N 29°58' W 093°52'3 0.1
2017-Nov-28 11:48N 29°60' W 093°55'0 0.0
2017-Nov-28 11:30N 29°60' W 093°55'0 0.0
2017-Nov-28 10:57N 29°60' W 093°55'0 0.0
2017-Nov-28 10:27N 29°60' W 093°55'  
2017-Nov-25 14:18N 30°03' W 093°44'2 5.0
2017-Nov-25 13:58N 30°03' W 093°42'2 4.5
2017-Nov-25 13:30N 30°04' W 093°40'2 4.4
2017-Nov-25 13:00N 30°04' W 093°37'2 4.5
2017-Nov-25 12:30N 30°04' W 093°35'2 4.5
2017-Nov-25 12:00N 30°04' W 093°32'2 4.6
2017-Nov-25 11:30N 30°04' W 093°30'2 4.8
2017-Nov-25 11:00N 30°04' W 093°27'2 4.6
2017-Nov-25 10:30N 30°04' W 093°24'2 4.6
2017-Nov-25 10:00N 30°04' W 093°21'2 3.4
2017-Nov-25 09:30N 30°05' W 093°20'1 2.4
2017-Nov-25 09:00N 30°06' W 093°19'1 2.2
2017-Nov-25 08:30N 30°06' W 093°18'1 1.2
2017-Nov-25 08:00N 30°05' W 093°17'1 2.8
2017-Nov-25 07:30N 30°04' W 093°16'2 4.1
2017-Nov-25 07:00N 30°02' W 093°15'2 3.9
2017-Nov-25 06:30N 30°01' W 093°14'2 4.0
2017-Nov-25 06:00N 29°59' W 093°13'2 4.4
2017-Nov-25 05:30N 29°58' W 093°11'2 4.1
2017-Nov-25 05:00N 29°56' W 093°09'2 4.2
2017-Nov-25 04:30N 29°56' W 093°07'2 4.4
2017-Nov-25 04:00N 29°56' W 093°04'37 4.0
2017-Nov-24 18:42N 29°51' W 092°22'1 4.1
2017-Nov-24 18:27N 29°51' W 092°20'1 1.2
2017-Nov-24 18:00N 29°51' W 092°20'1 2.6
2017-Nov-24 17:29N 29°50' W 092°18'2 3.6
2017-Nov-24 17:00N 29°49' W 092°17'2 3.2
2017-Nov-24 16:30N 29°48' W 092°15'2 3.5
2017-Nov-24 16:00N 29°48' W 092°13'1 2.2
2017-Nov-24 15:30N 29°47' W 092°12'1 1.8
2017-Nov-24 15:00N 29°47' W 092°11'0 0.6
2017-Nov-24 14:30N 29°47' W 092°11'0 0.0
2017-Nov-24 14:00N 29°47' W 092°11'0 0.0
2017-Nov-24 13:30N 29°47' W 092°11'0 0.0
2017-Nov-24 13:00N 29°47' W 092°11'0 0.2
2017-Nov-24 12:30N 29°47' W 092°11'0 0.5
2017-Nov-24 12:00N 29°47' W 092°11'0 0.1
2017-Nov-24 11:30N 29°47' W 092°11'0 0.1
2017-Nov-24 11:00N 29°47' W 092°11'2 3.3
2017-Nov-24 10:30N 29°47' W 092°09'2 4.6
2017-Nov-24 10:00N 29°48' W 092°06'2 4.5
2017-Nov-24 09:30N 29°49' W 092°04'2 4.5
2017-Nov-24 09:00N 29°49' W 092°01'3 4.7
2017-Nov-24 08:25N 29°50' W 091°58'  

Dump ship's entire track history